Time;durP1;ratioP1;P1;durP2;ratioP2;P2;SDS_P1;SDS_P2;PMS_P1;PMS_P2;Temp;Humidity;BMP_temperature;BMP_pressure;BME280_temperature;BME280_humidity;BME280_pressure;Samples;Min_cycle;Max_cycle;Signal;HPM_P1;HPM_P2
2021/05/23 00:00:52;;;;;;;13.27;1.67;;;12.90;99.90;;;;;;4990534;28;20124;-78
2021/05/23 00:03:18;;;;;;;10.20;1.80;;;12.90;99.90;;;;;;4977503;28;21254;-79
2021/05/23 00:05:44;;;;;;;13.70;1.70;;;13.00;99.90;;;;;;4973441;28;20177;-84
2021/05/23 00:08:13;;;;;;;13.63;1.75;;;13.00;99.90;;;;;;4972033;28;20031;-83
2021/05/23 00:10:59;;;;;;;10.55;1.70;;;13.00;99.90;;;;;;4977051;28;20022;-83
2021/05/23 00:13:27;;;;;;;14.00;1.80;;;13.00;99.90;;;;;;4975258;28;20481;-81
2021/05/23 00:15:58;;;;;;;18.67;1.92;;;12.90;99.90;;;;;;4975333;28;20118;-86
2021/05/23 00:18:25;;;;;;;21.98;2.20;;;12.90;99.90;;;;;;4982916;28;20035;-83
2021/05/23 00:20:52;;;;;;;12.85;1.60;;;12.90;99.90;;;;;;4955739;28;20061;-83
2021/05/23 00:23:18;;;;;;;10.38;1.63;;;12.90;99.90;;;;;;4958972;28;20030;-81
2021/05/23 00:25:44;;;;;;;17.15;1.80;;;12.90;99.90;;;;;;4972427;28;20102;-81
2021/05/23 00:28:10;;;;;;;14.20;2.35;;;12.90;99.90;;;;;;4972910;28;20031;-81
2021/05/23 00:30:38;;;;;;;13.77;1.60;;;13.00;99.90;;;;;;4973567;28;20054;-83
2021/05/23 00:33:05;;;;;;;14.70;2.03;;;13.00;99.90;;;;;;4959578;28;20027;-84
2021/05/23 00:35:32;;;;;;;12.68;1.60;;;13.00;99.90;;;;;;4977700;28;20030;-82
2021/05/23 00:37:58;;;;;;;12.20;2.00;;;13.00;99.90;;;;;;4971749;28;20027;-81
2021/05/23 00:40:24;;;;;;;12.18;1.85;;;13.00;99.90;;;;;;4992733;28;20041;-80
2021/05/23 00:42:50;;;;;;;15.43;1.88;;;13.00;99.90;;;;;;4979254;28;20409;-77
2021/05/23 00:45:17;;;;;;;21.30;1.63;;;13.10;99.90;;;;;;4978406;28;20087;-83
2021/05/23 00:47:44;;;;;;;9.35;1.45;;;13.10;99.90;;;;;;4996186;28;20026;-79
2021/05/23 00:50:13;;;;;;;12.80;1.48;;;13.00;99.90;;;;;;4996125;28;20393;-81
2021/05/23 00:52:39;;;;;;;14.38;1.85;;;12.90;99.90;;;;;;4990627;28;20018;-81
2021/05/23 00:55:05;;;;;;;16.80;1.65;;;12.80;99.90;;;;;;4978430;28;20401;-80
2021/05/23 00:57:32;;;;;;;13.00;2.20;;;12.60;99.90;;;;;;4995664;28;20030;-85
2021/05/23 00:59:57;;;;;;;14.98;2.05;;;12.60;99.90;;;;;;4987209;28;20037;-80
2021/05/23 01:02:46;;;;;;;14.80;2.03;;;12.50;99.90;;;;;;4987031;28;20023;-81
2021/05/23 01:05:16;;;;;;;11.20;1.58;;;12.50;99.90;;;;;;4976393;28;20109;-84
2021/05/23 01:07:42;;;;;;;10.77;1.33;;;12.60;99.90;;;;;;4982369;28;20026;-86
2021/05/23 01:10:12;;;;;;;16.15;2.10;;;12.60;99.90;;;;;;4989530;28;20093;-83
2021/05/23 01:12:53;;;;;;;16.50;1.40;;;12.70;99.90;;;;;;4977283;28;20418;-84
2021/05/23 01:15:40;;;;;;;17.83;2.38;;;12.80;99.90;;;;;;4976316;28;20023;-82
2021/05/23 01:18:19;;;;;;;18.52;1.80;;;12.80;99.90;;;;;;4970091;28;20031;-81
2021/05/23 01:21:00;;;;;;;21.63;2.25;;;12.80;99.90;;;;;;4980202;28;20410;-78
2021/05/23 01:23:33;;;;;;;14.98;1.65;;;12.80;99.90;;;;;;4993784;28;20030;-81
2021/05/23 01:26:07;;;;;;;11.05;1.35;;;12.80;99.90;;;;;;4990353;28;20038;-84
2021/05/23 01:28:40;;;;;;;12.35;1.67;;;12.80;99.90;;;;;;4978193;28;20042;-82
2021/05/23 01:31:09;;;;;;;15.70;1.88;;;12.80;99.90;;;;;;4995449;28;20057;-82
2021/05/23 01:33:35;;;;;;;17.02;2.17;;;12.70;99.90;;;;;;4977950;28;20022;-83
2021/05/23 01:36:03;;;;;;;17.85;1.92;;;12.70;99.90;;;;;;4995345;28;20022;-84
2021/05/23 01:38:30;;;;;;;13.80;1.70;;;12.60;99.90;;;;;;4977808;28;20050;-84
2021/05/23 01:41:01;;;;;;;19.65;2.00;;;12.60;99.90;;;;;;4973638;28;20042;-82
2021/05/23 01:43:28;;;;;;;11.60;1.73;;;12.50;99.90;;;;;;4975092;28;20027;-82
2021/05/23 01:45:54;;;;;;;16.27;1.60;;;12.50;99.90;;;;;;4984512;28;20586;-82
2021/05/23 01:48:20;;;;;;;8.30;1.20;;;12.50;99.90;;;;;;4994176;28;20080;-83
2021/05/23 01:50:46;;;;;;;16.80;1.70;;;12.50;99.90;;;;;;4994373;28;20488;-83
2021/05/23 01:53:12;;;;;;;18.25;1.80;;;12.60;99.90;;;;;;4994788;28;20026;-84
2021/05/23 01:55:37;;;;;;;12.25;1.23;;;12.60;99.90;;;;;;4980858;28;20027;-83
2021/05/23 01:58:04;;;;;;;10.65;1.45;;;12.60;99.90;;;;;;4985225;28;20042;-83
2021/05/23 02:00:42;;;;;;;11.40;1.17;;;12.70;99.90;;;;;;4989394;28;20037;-82
2021/05/23 02:03:10;;;;;;;17.60;1.90;;;12.70;99.90;;;;;;4993491;28;20026;-83
2021/05/23 02:05:40;;;;;;;14.23;1.63;;;12.60;99.90;;;;;;4975412;28;20038;-82
2021/05/23 02:08:07;;;;;;;10.75;1.50;;;12.50;99.90;;;;;;4982711;28;20034;-83
2021/05/23 02:10:33;;;;;;;11.05;1.85;;;12.40;99.90;;;;;;4960548;28;20027;-82
2021/05/23 02:13:03;;;;;;;14.68;1.45;;;12.30;99.90;;;;;;4985137;28;20026;-83
2021/05/23 02:15:29;;;;;;;14.07;1.80;;;12.40;99.90;;;;;;4994058;28;20133;-82
2021/05/23 02:17:55;;;;;;;17.20;1.73;;;12.40;99.90;;;;;;4966505;28;20089;-83
2021/05/23 02:20:26;;;;;;;8.05;1.10;;;12.40;99.90;;;;;;4974975;28;20506;-81
2021/05/23 02:22:54;;;;;;;7.50;1.63;;;12.20;99.90;;;;;;4973522;28;20030;-82
2021/05/23 02:25:21;;;;;;;11.48;1.23;;;11.80;99.90;;;;;;4975228;28;20116;-81
2021/05/23 02:27:52;;;;;;;12.85;1.30;;;11.50;99.90;;;;;;4993924;28;20022;-82
2021/05/23 02:30:27;;;;;;;13.65;1.58;;;11.40;99.90;;;;;;4994228;28;20022;-82
2021/05/23 02:32:52;;;;;;;17.45;1.63;;;11.40;99.90;;;;;;4994281;28;20057;-82
2021/05/23 02:35:21;;;;;;;16.38;2.05;;;11.40;99.90;;;;;;4990599;28;20049;-83
2021/05/23 02:37:47;;;;;;;13.27;1.52;;;11.50;99.90;;;;;;4964374;28;20034;-82
2021/05/23 02:40:16;;;;;;;8.50;1.27;;;11.50;99.90;;;;;;4986630;28;20462;-82
2021/05/23 02:42:43;;;;;;;15.43;1.60;;;11.50;99.90;;;;;;4956744;28;20033;-82
2021/05/23 02:45:11;;;;;;;15.02;2.08;;;11.40;99.90;;;;;;4974394;28;20022;-83
2021/05/23 02:47:38;;;;;;;12.90;1.83;;;11.50;99.90;;;;;;4969526;28;20019;-83
2021/05/23 02:50:07;;;;;;;13.15;1.88;;;11.50;99.90;;;;;;4976561;28;20282;-82
2021/05/23 02:52:32;;;;;;;14.50;1.65;;;11.40;99.90;;;;;;4978314;28;20034;-82
2021/05/23 02:54:58;;;;;;;10.25;1.65;;;11.50;99.90;;;;;;4974483;28;20018;-82
2021/05/23 02:57:24;;;;;;;17.42;1.80;;;11.50;99.90;;;;;;4969742;28;20081;-82
2021/05/23 02:59:50;;;;;;;16.75;2.38;;;11.50;99.90;;;;;;4976162;28;20058;-82
2021/05/23 03:02:15;;;;;;;13.65;1.08;;;11.50;99.90;;;;;;4983818;28;20030;-82
2021/05/23 03:04:41;;;;;;;9.93;0.90;;;11.60;99.90;;;;;;4983354;28;20069;-81
2021/05/23 03:07:06;;;;;;;4.97;0.90;;;11.50;99.90;;;;;;4987797;28;20033;-82
2021/05/23 03:09:32;;;;;;;9.80;1.20;;;11.50;99.90;;;;;;4974212;28;20035;-82
2021/05/23 03:11:58;;;;;;;5.72;0.88;;;11.50;99.90;;;;;;4985065;28;20041;-82
2021/05/23 03:14:24;;;;;;;11.52;0.85;;;11.50;99.90;;;;;;4981297;28;20023;-82
2021/05/23 03:16:50;;;;;;;4.38;0.88;;;11.40;99.90;;;;;;4984719;28;20023;-82
2021/05/23 03:19:16;;;;;;;7.50;1.15;;;11.40;99.90;;;;;;4962253;28;20055;-82
2021/05/23 03:21:43;;;;;;;16.63;1.20;;;11.30;99.90;;;;;;4990541;28;20040;-83
2021/05/23 03:24:09;;;;;;;8.40;1.15;;;11.30;99.90;;;;;;4979222;28;20030;-82
2021/05/23 03:26:35;;;;;;;6.90;1.20;;;11.30;99.90;;;;;;4993316;28;20033;-83
2021/05/23 03:29:01;;;;;;;11.88;1.00;;;11.30;99.90;;;;;;4983074;28;20026;-82
2021/05/23 03:31:27;;;;;;;7.20;0.95;;;11.40;99.90;;;;;;4999234;28;20042;-81
2021/05/23 03:33:53;;;;;;;10.35;0.85;;;11.40;99.90;;;;;;4998738;28;20077;-81
2021/05/23 03:36:19;;;;;;;9.52;0.90;;;11.30;99.90;;;;;;4999024;28;20018;-81
2021/05/23 03:38:46;;;;;;;9.88;0.60;;;11.20;99.90;;;;;;4981883;28;20042;-81
2021/05/23 03:41:13;;;;;;;7.43;0.77;;;11.10;99.90;;;;;;4990970;28;20043;-82
2021/05/23 03:43:38;;;;;;;7.22;0.70;;;11.10;99.90;;;;;;4988525;28;20118;-81
2021/05/23 03:46:04;;;;;;;8.05;1.00;;;11.00;99.90;;;;;;4988979;28;20043;-82
2021/05/23 03:48:30;;;;;;;6.75;0.88;;;10.90;99.90;;;;;;4973841;28;20474;-82
2021/05/23 03:50:56;;;;;;;13.20;1.40;;;10.90;99.90;;;;;;4973834;28;20029;-81
2021/05/23 03:53:21;;;;;;;10.85;0.93;;;10.90;99.90;;;;;;4973497;28;20030;-81
2021/05/23 03:55:49;;;;;;;8.48;0.95;;;10.80;99.90;;;;;;4983373;28;20546;-82
2021/05/23 03:58:18;;;;;;;9.32;1.25;;;10.90;99.90;;;;;;4972484;28;20415;-82
2021/05/23 04:00:44;;;;;;;14.20;1.17;;;11.00;99.90;;;;;;4959568;28;20507;-82
2021/05/23 04:03:10;;;;;;;11.70;1.30;;;11.00;99.90;;;;;;4973005;28;20089;-82
2021/05/23 04:05:36;;;;;;;9.50;1.25;;;11.10;99.90;;;;;;4989367;28;20066;-81
2021/05/23 04:08:03;;;;;;;16.85;1.05;;;11.00;99.90;;;;;;4979102;28;20027;-82
2021/05/23 04:10:32;;;;;;;11.25;1.08;;;11.00;99.90;;;;;;4981695;28;20090;-81
2021/05/23 04:13:01;;;;;;;13.98;1.10;;;11.10;99.90;;;;;;4979658;28;20386;-81
2021/05/23 04:15:27;;;;;;;9.25;1.40;;;11.00;99.90;;;;;;4977905;28;20112;-82
2021/05/23 04:17:53;;;;;;;13.60;0.98;;;11.00;99.90;;;;;;4977256;28;20099;-82
2021/05/23 04:20:21;;;;;;;11.90;1.10;;;11.10;99.90;;;;;;4977159;28;20055;-82
2021/05/23 04:22:48;;;;;;;16.02;1.60;;;11.00;99.90;;;;;;4994966;28;20513;-81
2021/05/23 04:25:15;;;;;;;16.25;1.50;;;11.00;99.90;;;;;;4994428;28;20088;-81
2021/05/23 04:27:46;;;;;;;9.68;1.02;;;11.00;99.90;;;;;;4968109;28;20125;-82
2021/05/23 04:30:13;;;;;;;12.88;1.17;;;11.00;99.90;;;;;;4994936;28;20081;-81
2021/05/23 04:32:39;;;;;;;11.05;0.80;;;11.00;99.90;;;;;;4996550;28;20026;-82
2021/05/23 04:35:07;;;;;;;15.50;1.13;;;11.00;99.90;;;;;;4995937;28;20045;-82
2021/05/23 04:37:33;;;;;;;6.82;1.23;;;11.00;99.90;;;;;;4975446;28;20030;-81
2021/05/23 04:39:59;;;;;;;12.70;1.25;;;11.00;99.90;;;;;;4979056;28;20019;-82
2021/05/23 04:42:24;;;;;;;9.13;1.08;;;11.00;99.90;;;;;;4974283;28;20031;-81
2021/05/23 04:44:50;;;;;;;11.45;1.23;;;10.90;99.90;;;;;;4987748;28;20397;-81
2021/05/23 04:47:16;;;;;;;9.43;1.02;;;10.90;99.90;;;;;;4996327;28;20023;-82
2021/05/23 04:49:42;;;;;;;12.50;1.15;;;10.90;99.90;;;;;;4996269;28;20477;-82
2021/05/23 04:52:09;;;;;;;12.10;1.35;;;10.90;99.90;;;;;;4989755;28;20149;-82
2021/05/23 04:54:36;;;;;;;18.13;1.77;;;10.90;99.90;;;;;;4982754;28;20026;-82
2021/05/23 04:57:03;;;;;;;10.45;1.52;;;10.90;99.90;;;;;;4978437;28;20516;-82
2021/05/23 04:59:29;;;;;;;20.27;1.50;;;10.90;99.90;;;;;;4981156;28;20027;-81
2021/05/23 05:01:54;;;;;;;10.32;1.20;;;11.00;99.90;;;;;;4986299;28;20474;-81
2021/05/23 05:04:20;;;;;;;16.85;1.27;;;11.00;99.90;;;;;;4978326;28;20033;-81
2021/05/23 05:06:46;;;;;;;5.97;1.05;;;11.00;99.90;;;;;;4975002;28;20046;-82
2021/05/23 05:09:12;;;;;;;12.85;1.38;;;11.10;99.90;;;;;;4995440;28;20026;-82
2021/05/23 05:11:37;;;;;;;11.95;1.90;;;11.20;99.90;;;;;;4979395;28;20031;-81
2021/05/23 05:14:03;;;;;;;10.75;1.33;;;11.30;99.90;;;;;;4971837;28;20085;-82
2021/05/23 05:16:29;;;;;;;9.35;1.17;;;11.40;99.90;;;;;;4978306;28;20139;-82
2021/05/23 05:18:55;;;;;;;10.38;1.13;;;11.50;99.90;;;;;;4965290;28;20058;-82
2021/05/23 05:21:20;;;;;;;10.15;1.27;;;11.50;99.90;;;;;;4976394;28;20045;-82
2021/05/23 05:23:46;;;;;;;11.32;1.23;;;11.50;99.90;;;;;;4973778;28;20058;-82
2021/05/23 05:26:12;;;;;;;9.20;1.30;;;11.50;99.90;;;;;;4985797;28;20456;-81
2021/05/23 05:28:37;;;;;;;16.25;1.10;;;11.50;99.90;;;;;;4995498;28;20174;-81
2021/05/23 05:31:03;;;;;;;6.47;1.10;;;11.50;99.90;;;;;;4989285;28;20034;-81
2021/05/23 05:33:29;;;;;;;6.78;1.10;;;11.60;99.90;;;;;;4995575;28;20022;-82
2021/05/23 05:35:55;;;;;;;12.82;1.40;;;11.70;99.90;;;;;;4987069;28;20520;-81
2021/05/23 05:38:20;;;;;;;8.32;1.58;;;12.00;99.90;;;;;;4987496;28;20030;-82
2021/05/23 05:40:46;;;;;;;7.40;1.10;;;12.20;99.90;;;;;;4992228;28;20039;-82
2021/05/23 05:43:12;;;;;;;7.07;1.00;;;12.40;99.90;;;;;;4973278;28;20031;-82
2021/05/23 05:45:38;;;;;;;13.95;1.00;;;12.40;99.90;;;;;;4987810;28;20038;-82
2021/05/23 05:48:04;;;;;;;7.80;1.08;;;12.50;99.90;;;;;;4995124;28;20499;-82
2021/05/23 05:50:29;;;;;;;16.60;1.58;;;12.50;99.90;;;;;;4981067;28;20073;-82
2021/05/23 05:52:55;;;;;;;10.75;1.30;;;12.50;99.90;;;;;;4975644;28;20486;-81
2021/05/23 05:55:21;;;;;;;4.30;0.82;;;12.50;99.90;;;;;;4975546;28;20050;-82
2021/05/23 05:57:47;;;;;;;6.70;1.00;;;12.50;99.90;;;;;;4986702;28;20625;-82
2021/05/23 06:00:13;;;;;;;7.05;0.90;;;12.50;99.90;;;;;;4979972;28;20027;-82
2021/05/23 06:02:39;;;;;;;5.93;1.00;;;12.50;99.90;;;;;;4980764;28;20434;-81
2021/05/23 06:05:05;;;;;;;2.92;0.82;;;12.60;99.90;;;;;;4976758;28;20525;-82
2021/05/23 06:07:31;;;;;;;7.60;0.93;;;12.60;99.90;;;;;;4979063;28;20037;-81
2021/05/23 06:09:56;;;;;;;2.95;0.60;;;12.70;99.90;;;;;;4971074;28;20038;-81
2021/05/23 06:12:22;;;;;;;5.43;0.80;;;12.70;99.90;;;;;;4980359;28;20023;-82
2021/05/23 06:14:48;;;;;;;8.75;1.02;;;12.60;99.90;;;;;;4986295;28;20497;-81
2021/05/23 06:17:13;;;;;;;8.27;1.20;;;12.50;99.90;;;;;;4995051;28;20034;-81
2021/05/23 06:19:39;;;;;;;10.07;1.08;;;12.50;99.90;;;;;;4986802;28;20101;-81
2021/05/23 06:22:05;;;;;;;7.57;1.67;;;12.50;99.90;;;;;;4980170;28;20398;-82
2021/05/23 06:24:30;;;;;;;9.32;1.67;;;12.50;99.90;;;;;;4974505;28;20065;-82
2021/05/23 06:26:56;;;;;;;7.80;1.52;;;12.50;99.90;;;;;;4973177;28;20129;-81
2021/05/23 06:29:22;;;;;;;9.52;1.88;;;12.50;99.90;;;;;;4986086;28;20513;-82
2021/05/23 06:31:47;;;;;;;8.55;1.55;;;12.50;99.90;;;;;;4990141;28;20026;-82
2021/05/23 06:34:13;;;;;;;8.15;1.30;;;12.60;99.90;;;;;;4974756;28;20057;-82
2021/05/23 06:36:39;;;;;;;9.15;1.38;;;12.70;99.90;;;;;;4975984;28;20030;-81
2021/05/23 06:39:06;;;;;;;5.47;1.58;;;12.90;99.90;;;;;;4993584;28;20026;-82
2021/05/23 06:41:32;;;;;;;4.75;1.42;;;13.10;99.90;;;;;;4975857;28;20397;-82
2021/05/23 06:43:58;;;;;;;13.32;1.15;;;13.20;99.90;;;;;;4972695;28;20038;-83
2021/05/23 06:46:23;;;;;;;8.48;1.08;;;13.40;99.90;;;;;;4985801;28;20050;-82
2021/05/23 06:48:49;;;;;;;6.90;1.08;;;13.50;99.90;;;;;;4994040;28;20036;-82
2021/05/23 06:51:15;;;;;;;5.35;0.77;;;13.60;99.90;;;;;;4988706;28;20027;-82
2021/05/23 06:53:41;;;;;;;7.63;0.93;;;13.70;99.90;;;;;;4974758;28;20494;-83
2021/05/23 06:56:07;;;;;;;5.40;0.80;;;13.60;99.90;;;;;;4967845;28;20030;-82
2021/05/23 06:58:33;;;;;;;4.15;0.75;;;13.80;99.90;;;;;;4986534;28;20031;-83
2021/05/23 07:00:58;;;;;;;5.93;0.80;;;13.80;99.90;;;;;;4993106;28;20089;-83
2021/05/23 07:03:25;;;;;;;5.63;0.68;;;13.80;99.90;;;;;;4983977;28;20482;-83
2021/05/23 07:05:51;;;;;;;8.27;1.10;;;13.70;99.90;;;;;;4993251;28;20038;-82
2021/05/23 07:08:18;;;;;;;5.80;0.90;;;13.90;99.90;;;;;;4990491;28;20041;-82
2021/05/23 07:10:44;;;;;;;7.88;0.88;;;13.80;99.90;;;;;;4981379;28;20054;-82
2021/05/23 07:13:10;;;;;;;8.57;0.98;;;13.90;99.90;;;;;;4973956;28;20027;-82
2021/05/23 07:15:35;;;;;;;6.18;0.80;;;14.10;99.90;;;;;;4973895;28;20031;-83
2021/05/23 07:18:01;;;;;;;8.55;0.80;;;14.30;99.90;;;;;;4963634;28;20051;-83
2021/05/23 07:20:27;;;;;;;8.27;0.73;;;14.50;99.90;;;;;;4963028;28;20509;-83
2021/05/23 07:22:53;;;;;;;5.97;1.13;;;14.60;99.90;;;;;;4985353;28;20034;-83
2021/05/23 07:25:19;;;;;;;7.32;0.90;;;14.80;99.90;;;;;;4985656;28;20573;-84
2021/05/23 07:27:45;;;;;;;5.22;0.90;;;15.00;99.90;;;;;;4975224;28;20128;-84
2021/05/23 07:30:11;;;;;;;4.65;0.73;;;14.90;99.90;;;;;;4974355;28;20027;-85
2021/05/23 07:32:37;;;;;;;5.05;0.82;;;14.60;99.90;;;;;;4993458;28;20022;-84
2021/05/23 07:35:03;;;;;;;6.82;1.00;;;14.90;99.90;;;;;;4993235;28;20041;-82
2021/05/23 07:37:29;;;;;;;7.50;1.00;;;14.70;99.90;;;;;;4983681;28;20037;-81
2021/05/23 07:39:55;;;;;;;6.18;1.02;;;15.50;99.90;;;;;;4973515;28;20482;-84
2021/05/23 07:42:20;;;;;;;4.95;0.80;;;15.80;99.90;;;;;;4973744;28;20509;-84
2021/05/23 07:44:46;;;;;;;3.55;0.68;;;17.30;99.60;;;;;;4979453;28;20023;-81
2021/05/23 07:47:12;;;;;;;4.05;0.82;;;19.10;94.20;;;;;;4975163;28;20036;-83
2021/05/23 07:49:41;;;;;;;2.83;0.82;;;19.50;93.60;;;;;;4992951;28;20064;-83
2021/05/23 07:52:11;;;;;;;3.92;0.70;;;20.10;91.30;;;;;;4992941;28;20022;-85
2021/05/23 07:54:40;;;;;;;6.32;0.98;;;19.10;91.90;;;;;;4993048;28;20486;-83
2021/05/23 07:57:06;;;;;;;8.02;1.52;;;19.70;93.40;;;;;;4992760;28;20018;-85
2021/05/23 07:59:33;;;;;;;5.03;1.00;;;20.60;90.20;;;;;;4992949;28;20494;-85
2021/05/23 08:01:59;;;;;;;8.75;1.10;;;20.70;87.40;;;;;;4988872;28;20027;-84
2021/05/23 08:04:25;;;;;;;3.80;0.70;;;21.20;88.00;;;;;;4964937;28;20408;-82
2021/05/23 08:06:50;;;;;;;3.20;0.98;;;20.30;87.30;;;;;;4970935;28;20035;-84
2021/05/23 08:09:16;;;;;;;5.28;0.80;;;20.10;88.30;;;;;;4973251;28;20403;-85
2021/05/23 08:11:42;;;;;;;7.32;0.90;;;20.70;86.50;;;;;;4986513;28;20018;-82
2021/05/23 08:14:08;;;;;;;6.95;1.10;;;21.10;86.60;;;;;;4979041;28;20085;-82
2021/05/23 08:16:34;;;;;;;5.13;1.00;;;21.60;85.00;;;;;;4985676;28;20422;-84
2021/05/23 08:19:00;;;;;;;7.82;1.17;;;21.70;84.30;;;;;;4986551;28;20072;-82
2021/05/23 08:21:26;;;;;;;7.47;0.90;;;21.40;84.80;;;;;;4991552;28;20037;-84
2021/05/23 08:23:51;;;;;;;6.68;1.17;;;20.50;86.90;;;;;;4992604;28;20030;-83
2021/05/23 08:26:17;;;;;;;3.90;1.40;;;22.00;83.80;;;;;;4990054;28;20037;-84
2021/05/23 08:28:43;;;;;;;6.88;0.98;;;23.50;80.10;;;;;;4973589;28;20026;-83
2021/05/23 08:31:08;;;;;;;6.32;1.13;;;22.20;79.80;;;;;;4973359;28;20031;-77
2021/05/23 08:33:34;;;;;;;7.40;1.13;;;19.30;89.10;;;;;;4972162;28;20031;-83
2021/05/23 08:36:01;;;;;;;4.18;0.70;;;17.50;93.50;;;;;;4985292;28;20497;-77
2021/05/23 08:38:27;;;;;;;4.80;1.25;;;16.70;94.70;;;;;;4975435;28;20584;-84
2021/05/23 08:40:53;;;;;;;7.30;0.90;;;17.50;94.40;;;;;;4972550;28;20065;-84
2021/05/23 08:43:20;;;;;;;7.75;1.00;;;19.20;91.70;;;;;;4956693;28;20027;-84
2021/05/23 08:45:49;;;;;;;9.45;1.02;;;18.50;91.60;;;;;;4979296;28;20054;-84
2021/05/23 08:48:17;;;;;;;5.93;1.08;;;18.30;92.50;;;;;;4980176;28;20034;-82
2021/05/23 08:50:43;;;;;;;6.78;0.98;;;19.10;90.60;;;;;;4983079;28;20030;-73
2021/05/23 08:53:09;;;;;;;8.27;0.85;;;17.70;92.50;;;;;;4988145;28;20033;-84
2021/05/23 08:55:37;;;;;;;5.72;1.05;;;16.90;94.10;;;;;;4991431;28;20037;-76
2021/05/23 08:58:03;;;;;;;5.18;0.80;;;16.20;96.20;;;;;;4975170;28;20520;-85
2021/05/23 09:00:30;;;;;;;4.50;0.80;;;17.30;94.60;;;;;;4979307;28;20023;-77
2021/05/23 09:03:00;;;;;;;8.48;1.17;;;16.60;95.00;;;;;;4984668;28;20029;-85
2021/05/23 09:05:34;;;;;;;6.45;0.98;;;18.70;92.60;;;;;;4974036;28;20085;-84
2021/05/23 09:08:03;;;;;;;8.38;1.20;;;21.10;86.20;;;;;;4985168;28;20101;-76
2021/05/23 09:10:32;;;;;;;4.15;1.20;;;21.20;84.60;;;;;;4987970;28;20489;-83
2021/05/23 09:12:58;;;;;;;6.18;1.10;;;21.40;85.10;;;;;;4960209;28;20357;-83
2021/05/23 09:15:24;;;;;;;6.90;1.35;;;21.80;81.80;;;;;;4986788;28;20035;-84
2021/05/23 09:18:00;;;;;;;6.53;1.08;;;21.60;83.40;;;;;;4991822;28;20058;-85
2021/05/23 09:20:26;;;;;;;6.95;0.95;;;19.80;86.30;;;;;;4980862;28;20100;-84
2021/05/23 09:22:53;;;;;;;4.78;1.20;;;19.50;87.10;;;;;;4988070;28;20101;-77
2021/05/23 09:25:36;;;;;;;7.78;1.38;;;20.90;84.00;;;;;;4994473;28;20030;-81
2021/05/23 09:28:04;;;;;;;5.00;1.30;;;21.70;83.20;;;;;;4974135;28;20018;-84
2021/05/23 09:30:32;;;;;;;6.68;1.20;;;22.30;81.70;;;;;;4974635;28;20023;-81
2021/05/23 09:32:58;;;;;;;6.32;1.38;;;20.60;84.60;;;;;;4995535;28;20018;-79
2021/05/23 09:35:29;;;;;;;3.70;1.30;;;21.30;84.40;;;;;;4991180;28;20019;-88
2021/05/23 09:38:04;;;;;;;5.65;1.30;;;22.70;81.30;;;;;;4973125;28;20031;-84
2021/05/23 09:40:39;;;;;;;4.57;1.35;;;22.30;80.50;;;;;;4975796;28;20102;-84
2021/05/23 09:43:08;;;;;;;7.18;1.75;;;22.70;79.50;;;;;;4956934;28;20023;-85
2021/05/23 09:45:52;;;;;;;4.75;1.40;;;22.00;80.70;;;;;;4974702;28;20558;-81
2021/05/23 09:48:19;;;;;;;4.38;1.50;;;22.00;79.70;;;;;;4982933;28;20497;-84
2021/05/23 09:50:46;;;;;;;7.05;1.77;;;22.10;79.70;;;;;;4980567;28;20038;-85
2021/05/23 09:53:19;;;;;;;7.57;1.75;;;22.10;80.70;;;;;;4975661;28;20031;-84
2021/05/23 09:55:59;;;;;;;3.05;1.25;;;22.30;80.00;;;;;;4975571;28;20054;-84
2021/05/23 09:58:34;;;;;;;6.65;1.45;;;22.30;79.70;;;;;;4975504;28;20078;-83
2021/05/23 10:01:00;;;;;;;4.97;1.40;;;21.20;83.50;;;;;;4993285;28;20574;-82
2021/05/23 10:03:28;;;;;;;3.70;1.33;;;22.00;81.60;;;;;;4982718;28;20030;-84
2021/05/23 10:05:54;;;;;;;4.15;1.40;;;22.20;80.00;;;;;;4975472;28;20421;-81
2021/05/23 10:08:20;;;;;;;9.45;1.67;;;22.80;79.50;;;;;;4974008;28;20035;-84
2021/05/23 10:10:46;;;;;;;5.88;1.40;;;22.30;80.30;;;;;;4963622;28;20046;-84
2021/05/23 10:13:12;;;;;;;7.60;1.73;;;21.50;83.90;;;;;;4975279;28;20099;-82
2021/05/23 10:15:39;;;;;;;4.18;1.17;;;20.60;87.40;;;;;;4959058;28;20117;-83
2021/05/23 10:18:09;;;;;;;6.05;1.00;;;21.50;80.90;;;;;;4975074;28;20498;-85
2021/05/23 10:20:36;;;;;;;6.90;1.00;;;19.30;87.00;;;;;;4986828;28;20051;-82
2021/05/23 10:23:22;;;;;;;4.55;0.88;;;17.30;92.70;;;;;;4994763;28;20433;-79
2021/05/23 10:25:50;;;;;;;3.78;0.50;;;16.60;94.50;;;;;;4993887;28;20026;-81
2021/05/23 10:28:18;;;;;;;1.58;0.40;;;16.10;94.00;;;;;;4976947;28;20041;-73
2021/05/23 10:30:48;;;;;;;3.40;0.85;;;15.70;92.90;;;;;;4975227;28;20026;-83
2021/05/23 10:33:14;;;;;;;2.65;0.63;;;15.70;94.90;;;;;;4974978;28;20382;-83
2021/05/23 10:35:45;;;;;;;7.97;0.90;;;15.70;95.30;;;;;;4975017;28;20168;-83
2021/05/23 10:38:14;;;;;;;5.15;0.93;;;15.80;96.50;;;;;;4973517;28;20442;-81
2021/05/23 10:41:17;;;;;;;3.88;0.82;;;16.30;96.70;;;;;;4973422;28;20378;-82
2021/05/23 10:43:46;;;;;;;;;;;17.30;95.50;;;;;;4967391;28;20045;-77
2021/05/23 10:46:14;;;;;;;7.88;1.20;;;20.00;91.20;;;;;;4977236;28;19906;-85
2021/05/23 10:48:57;;;;;;;4.68;0.90;;;19.40;90.80;;;;;;4979548;28;20462;-85
2021/05/23 10:51:25;;;;;;;8.32;1.50;;;20.20;88.70;;;;;;4993806;28;20030;-83
2021/05/23 10:53:51;;;;;;;6.85;1.35;;;21.10;86.60;;;;;;4981173;28;20046;-81
2021/05/23 10:56:18;;;;;;;4.93;1.13;;;21.30;82.80;;;;;;4975108;28;20058;-84
2021/05/23 10:58:51;;;;;;;3.88;1.05;;;21.00;83.20;;;;;;4985085;28;20392;-82
2021/05/23 11:01:18;;;;;;;7.05;1.20;;;20.70;84.50;;;;;;4974423;28;20054;-82
2021/05/23 11:03:44;;;;;;;4.53;1.17;;;21.00;83.80;;;;;;4972873;28;20375;-83
2021/05/23 11:06:10;;;;;;;5.90;1.17;;;21.10;83.40;;;;;;4974450;28;20042;-81
2021/05/23 11:08:36;;;;;;;4.05;0.98;;;20.90;84.80;;;;;;4980829;28;20027;-84
2021/05/23 11:11:03;;;;;;;6.07;1.27;;;21.10;82.60;;;;;;4988351;28;20465;-81
2021/05/23 11:13:34;;;;;;;4.97;1.10;;;20.60;84.70;;;;;;4990568;28;20478;-85
2021/05/23 11:16:11;;;;;;;3.55;1.05;;;20.50;85.40;;;;;;4973889;28;20077;-83
2021/05/23 11:18:37;;;;;;;5.75;1.38;;;20.10;84.90;;;;;;4972920;28;20057;-74
2021/05/23 11:21:12;;;;;;;9.18;1.30;;;20.60;85.30;;;;;;4991154;28;20073;-87
2021/05/23 11:23:53;;;;;;;5.85;1.30;;;20.60;84.50;;;;;;4989239;28;20069;-85
2021/05/23 11:26:19;;;;;;;8.45;1.30;;;20.40;85.50;;;;;;4968092;28;20030;-79
2021/05/23 11:28:53;;;;;;;7.60;1.23;;;20.40;86.10;;;;;;4991872;28;20509;-82
2021/05/23 11:31:25;;;;;;;4.07;0.95;;;20.50;87.20;;;;;;4980138;28;20046;-81
2021/05/23 11:33:51;;;;;;;7.15;1.13;;;21.00;85.60;;;;;;4972969;28;20022;-83
2021/05/23 11:36:21;;;;;;;6.32;1.25;;;20.70;86.10;;;;;;4993181;28;20092;-83
2021/05/23 11:38:47;;;;;;;6.05;1.25;;;20.70;85.80;;;;;;4974032;28;20023;-75
2021/05/23 11:41:13;;;;;;;6.63;1.30;;;20.30;86.40;;;;;;4964239;28;20038;-78
2021/05/23 11:43:39;;;;;;;6.57;1.42;;;21.00;84.80;;;;;;4972336;28;20038;-82
2021/05/23 11:46:06;;;;;;;7.38;1.17;;;20.90;83.80;;;;;;4973609;28;20043;-79
2021/05/23 11:48:41;;;;;;;4.60;1.10;;;20.50;83.10;;;;;;4990268;28;20066;-84
2021/05/23 11:51:11;;;;;;;5.72;1.05;;;20.10;85.00;;;;;;4988950;28;20089;-72
2021/05/23 11:53:44;;;;;;;4.95;1.10;;;20.60;84.60;;;;;;4993169;28;20019;-72
2021/05/23 11:56:17;;;;;;;4.07;1.17;;;20.60;85.70;;;;;;4973880;28;20080;-75
2021/05/23 11:58:45;;;;;;;5.22;0.90;;;20.50;85.40;;;;;;4978208;28;20097;-79
2021/05/23 12:01:20;;;;;;;4.18;0.85;;;20.30;85.90;;;;;;4973561;28;20113;-85
2021/05/23 12:04:00;;;;;;;4.60;1.00;;;20.60;83.10;;;;;;4979874;28;20050;-82
2021/05/23 12:06:28;;;;;;;6.43;1.08;;;20.50;82.30;;;;;;4984997;28;20101;-72
2021/05/23 12:09:09;;;;;;;3.15;0.90;;;20.50;81.20;;;;;;4972777;28;20552;-79
2021/05/23 12:11:49;;;;;;;4.38;0.90;;;20.20;80.80;;;;;;4979451;28;20027;-78
2021/05/23 12:14:31;;;;;;;5.00;0.77;;;19.80;82.70;;;;;;4989109;28;20015;-85
2021/05/23 12:17:06;;;;;;;5.13;0.95;;;20.10;84.30;;;;;;4972699;28;20054;-77
2021/05/23 12:22:25;;;;;;;4.78;0.90;;;19.50;84.50;;;;;;4968131;28;20034;-73
2021/05/23 12:25:00;;;;;;;7.22;1.00;;;19.60;86.30;;;;;;4973100;28;20025;-78
2021/05/23 12:27:27;;;;;;;5.43;1.30;;;18.80;89.10;;;;;;4972680;28;20037;-85
2021/05/23 12:29:53;;;;;;;7.20;1.50;;;19.80;86.70;;;;;;4986657;28;20033;-81
2021/05/23 12:32:20;;;;;;;7.43;1.23;;;20.10;84.80;;;;;;4975074;28;20403;-75
2021/05/23 12:34:46;;;;;;;3.88;0.90;;;20.10;85.90;;;;;;4978427;28;20030;-78
2021/05/23 12:37:14;;;;;;;3.58;0.73;;;19.90;85.70;;;;;;4988515;28;20588;-77
2021/05/23 12:39:40;;;;;;;11.90;1.20;;;19.30;88.70;;;;;;4979056;28;20018;-84
2021/05/23 12:42:06;;;;;;;10.20;1.00;;;19.00;91.50;;;;;;4964821;28;20405;-84
2021/05/23 12:44:32;;;;;;;4.60;1.00;;;19.20;89.50;;;;;;4978164;28;20056;-81
2021/05/23 12:47:11;;;;;;;6.03;0.95;;;19.60;88.40;;;;;;4986444;28;20034;-82
2021/05/23 12:49:44;;;;;;;10.52;1.27;;;19.50;87.20;;;;;;4976827;28;20441;-82